sensor_id;sensor_type;location;lat;lon;timestamp;temperature;humidity
21666;DHT22;10994;45.486;9.190;2022-11-13T00:02:32;14.90;99.90
21666;DHT22;10994;45.486;9.190;2022-11-13T00:05:17;14.90;99.90
21666;DHT22;10994;45.486;9.190;2022-11-13T00:08:01;14.90;99.90
21666;DHT22;10994;45.486;9.190;2022-11-13T00:10:45;14.90;99.90
21666;DHT22;10994;45.486;9.190;2022-11-13T00:13:30;14.90;99.90
21666;DHT22;10994;45.486;9.190;2022-11-13T00:16:19;14.90;99.90
21666;DHT22;10994;45.486;9.190;2022-11-13T00:19:03;14.80;99.90
21666;DHT22;10994;45.486;9.190;2022-11-13T00:21:47;14.80;99.90
21666;DHT22;10994;45.486;9.190;2022-11-13T00:24:31;14.80;99.90
21666;DHT22;10994;45.486;9.190;2022-11-13T00:27:15;14.80;99.90
21666;DHT22;10994;45.486;9.190;2022-11-13T00:29:59;14.80;99.90
21666;DHT22;10994;45.486;9.190;2022-11-13T00:32:43;14.80;99.90
21666;DHT22;10994;45.486;9.190;2022-11-13T00:35:27;14.80;99.90
21666;DHT22;10994;45.486;9.190;2022-11-13T00:38:11;14.80;99.90
21666;DHT22;10994;45.486;9.190;2022-11-13T00:40:56;14.90;99.90
21666;DHT22;10994;45.486;9.190;2022-11-13T00:43:40;14.90;99.90
21666;DHT22;10994;45.486;9.190;2022-11-13T00:46:24;14.80;99.90
21666;DHT22;10994;45.486;9.190;2022-11-13T00:49:09;14.80;99.90
21666;DHT22;10994;45.486;9.190;2022-11-13T00:51:53;14.80;99.90
21666;DHT22;10994;45.486;9.190;2022-11-13T00:54:37;14.80;99.90
21666;DHT22;10994;45.486;9.190;2022-11-13T00:57:21;14.80;99.90
21666;DHT22;10994;45.486;9.190;2022-11-13T01:00:05;14.80;99.90
21666;DHT22;10994;45.486;9.190;2022-11-13T01:02:50;14.80;99.90
21666;DHT22;10994;45.486;9.190;2022-11-13T01:05:36;14.70;99.90
21666;DHT22;10994;45.486;9.190;2022-11-13T01:08:20;14.70;99.90
21666;DHT22;10994;45.486;9.190;2022-11-13T01:11:13;14.60;99.90
21666;DHT22;10994;45.486;9.190;2022-11-13T01:13:57;14.50;99.90
21666;DHT22;10994;45.486;9.190;2022-11-13T01:16:41;14.50;99.90
21666;DHT22;10994;45.486;9.190;2022-11-13T01:19:25;14.50;99.90
21666;DHT22;10994;45.486;9.190;2022-11-13T01:22:09;14.30;99.90
21666;DHT22;10994;45.486;9.190;2022-11-13T01:24:53;14.30;99.90
21666;DHT22;10994;45.486;9.190;2022-11-13T01:27:37;14.20;99.90
21666;DHT22;10994;45.486;9.190;2022-11-13T01:30:21;14.00;99.90
21666;DHT22;10994;45.486;9.190;2022-11-13T01:33:06;14.10;99.90
21666;DHT22;10994;45.486;9.190;2022-11-13T01:35:51;14.00;99.90
21666;DHT22;10994;45.486;9.190;2022-11-13T01:38:34;14.00;99.90
21666;DHT22;10994;45.486;9.190;2022-11-13T01:41:23;14.00;99.90
21666;DHT22;10994;45.486;9.190;2022-11-13T01:44:16;14.10;99.90
21666;DHT22;10994;45.486;9.190;2022-11-13T01:47:02;14.10;99.90
21666;DHT22;10994;45.486;9.190;2022-11-13T01:49:48;14.00;99.90
21666;DHT22;10994;45.486;9.190;2022-11-13T01:52:36;14.00;99.90
21666;DHT22;10994;45.486;9.190;2022-11-13T01:55:21;13.90;99.90
21666;DHT22;10994;45.486;9.190;2022-11-13T01:58:08;14.00;99.90
21666;DHT22;10994;45.486;9.190;2022-11-13T02:00:52;14.00;99.90
21666;DHT22;10994;45.486;9.190;2022-11-13T02:03:36;14.00;99.90
21666;DHT22;10994;45.486;9.190;2022-11-13T02:06:21;14.00;99.90
21666;DHT22;10994;45.486;9.190;2022-11-13T02:09:06;14.00;99.90
21666;DHT22;10994;45.486;9.190;2022-11-13T02:11:52;14.00;99.90
21666;DHT22;10994;45.486;9.190;2022-11-13T02:14:41;14.00;99.90
21666;DHT22;10994;45.486;9.190;2022-11-13T02:17:36;14.00;99.90
21666;DHT22;10994;45.486;9.190;2022-11-13T02:24:29;14.00;99.90
21666;DHT22;10994;45.486;9.190;2022-11-13T02:26:49;14.00;99.90
21666;DHT22;10994;45.486;9.190;2022-11-13T02:29:33;14.10;99.90
21666;DHT22;10994;45.486;9.190;2022-11-13T02:32:18;14.10;99.90
21666;DHT22;10994;45.486;9.190;2022-11-13T02:35:02;14.10;99.90
21666;DHT22;10994;45.486;9.190;2022-11-13T02:37:47;14.10;99.90
21666;DHT22;10994;45.486;9.190;2022-11-13T02:40:32;14.10;99.90
21666;DHT22;10994;45.486;9.190;2022-11-13T02:43:17;14.10;99.90
21666;DHT22;10994;45.486;9.190;2022-11-13T02:46:01;14.10;99.90
21666;DHT22;10994;45.486;9.190;2022-11-13T02:48:45;14.10;99.90
21666;DHT22;10994;45.486;9.190;2022-11-13T02:51:29;14.10;99.90
21666;DHT22;10994;45.486;9.190;2022-11-13T02:54:14;14.10;99.90
21666;DHT22;10994;45.486;9.190;2022-11-13T02:56:58;14.20;99.90
21666;DHT22;10994;45.486;9.190;2022-11-13T02:59:42;14.10;99.90
21666;DHT22;10994;45.486;9.190;2022-11-13T03:02:26;14.10;99.90
21666;DHT22;10994;45.486;9.190;2022-11-13T03:05:10;14.10;99.90
21666;DHT22;10994;45.486;9.190;2022-11-13T03:07:54;14.10;99.90
21666;DHT22;10994;45.486;9.190;2022-11-13T03:10:38;14.10;99.90
21666;DHT22;10994;45.486;9.190;2022-11-13T03:13:22;14.00;99.90
21666;DHT22;10994;45.486;9.190;2022-11-13T03:16:14;13.90;99.90
21666;DHT22;10994;45.486;9.190;2022-11-13T03:18:59;14.00;99.90
21666;DHT22;10994;45.486;9.190;2022-11-13T03:21:43;13.90;99.90
21666;DHT22;10994;45.486;9.190;2022-11-13T03:24:28;13.90;99.90
21666;DHT22;10994;45.486;9.190;2022-11-13T03:27:12;13.70;99.90
21666;DHT22;10994;45.486;9.190;2022-11-13T03:29:57;13.70;99.90
21666;DHT22;10994;45.486;9.190;2022-11-13T03:32:41;13.50;99.90
21666;DHT22;10994;45.486;9.190;2022-11-13T03:35:25;13.60;99.90
21666;DHT22;10994;45.486;9.190;2022-11-13T03:38:10;13.70;99.90
21666;DHT22;10994;45.486;9.190;2022-11-13T03:40:54;13.60;99.90
21666;DHT22;10994;45.486;9.190;2022-11-13T03:43:38;13.60;99.90
21666;DHT22;10994;45.486;9.190;2022-11-13T03:46:22;13.60;99.90
21666;DHT22;10994;45.486;9.190;2022-11-13T03:49:10;13.50;99.90
21666;DHT22;10994;45.486;9.190;2022-11-13T03:51:54;13.50;99.90
21666;DHT22;10994;45.486;9.190;2022-11-13T03:54:38;13.50;99.90
21666;DHT22;10994;45.486;9.190;2022-11-13T03:57:22;13.50;99.90
21666;DHT22;10994;45.486;9.190;2022-11-13T04:00:07;13.60;99.90
21666;DHT22;10994;45.486;9.190;2022-11-13T04:02:52;13.50;99.90
21666;DHT22;10994;45.486;9.190;2022-11-13T04:05:37;13.60;99.90
21666;DHT22;10994;45.486;9.190;2022-11-13T04:08:21;13.70;99.90
21666;DHT22;10994;45.486;9.190;2022-11-13T04:11:07;13.70;99.90
21666;DHT22;10994;45.486;9.190;2022-11-13T04:13:52;13.70;99.90
21666;DHT22;10994;45.486;9.190;2022-11-13T04:16:36;13.70;99.90
21666;DHT22;10994;45.486;9.190;2022-11-13T04:19:20;13.80;99.90
21666;DHT22;10994;45.486;9.190;2022-11-13T04:22:04;13.80;99.90
21666;DHT22;10994;45.486;9.190;2022-11-13T04:24:48;13.80;99.90
21666;DHT22;10994;45.486;9.190;2022-11-13T04:27:34;13.70;99.90
21666;DHT22;10994;45.486;9.190;2022-11-13T04:30:19;13.70;99.90
21666;DHT22;10994;45.486;9.190;2022-11-13T04:33:03;13.70;99.90
21666;DHT22;10994;45.486;9.190;2022-11-13T04:35:47;13.70;99.90
21666;DHT22;10994;45.486;9.190;2022-11-13T04:38:31;13.70;99.90
21666;DHT22;10994;45.486;9.190;2022-11-13T04:41:16;13.80;99.90
21666;DHT22;10994;45.486;9.190;2022-11-13T04:44:19;13.80;99.90
21666;DHT22;10994;45.486;9.190;2022-11-13T04:47:03;13.80;99.90
21666;DHT22;10994;45.486;9.190;2022-11-13T04:49:47;13.90;99.90
21666;DHT22;10994;45.486;9.190;2022-11-13T04:52:32;13.90;99.90
21666;DHT22;10994;45.486;9.190;2022-11-13T04:55:16;13.90;99.90
21666;DHT22;10994;45.486;9.190;2022-11-13T04:58:00;13.90;99.90
21666;DHT22;10994;45.486;9.190;2022-11-13T05:00:44;13.90;99.90
21666;DHT22;10994;45.486;9.190;2022-11-13T05:03:28;13.80;99.90
21666;DHT22;10994;45.486;9.190;2022-11-13T05:06:13;13.80;99.90
21666;DHT22;10994;45.486;9.190;2022-11-13T05:08:57;13.80;99.90
21666;DHT22;10994;45.486;9.190;2022-11-13T05:11:41;13.80;99.90
21666;DHT22;10994;45.486;9.190;2022-11-13T05:14:25;13.80;99.90
21666;DHT22;10994;45.486;9.190;2022-11-13T05:17:11;13.70;99.90
21666;DHT22;10994;45.486;9.190;2022-11-13T05:19:55;13.80;99.90
21666;DHT22;10994;45.486;9.190;2022-11-13T05:22:39;13.70;99.90
21666;DHT22;10994;45.486;9.190;2022-11-13T05:25:23;13.70;99.90
21666;DHT22;10994;45.486;9.190;2022-11-13T05:28:08;13.80;99.90
21666;DHT22;10994;45.486;9.190;2022-11-13T05:30:52;13.80;99.90
21666;DHT22;10994;45.486;9.190;2022-11-13T05:33:38;13.80;99.90
21666;DHT22;10994;45.486;9.190;2022-11-13T05:36:23;13.80;99.90
21666;DHT22;10994;45.486;9.190;2022-11-13T05:39:07;13.70;99.90
21666;DHT22;10994;45.486;9.190;2022-11-13T05:41:52;13.80;99.90
21666;DHT22;10994;45.486;9.190;2022-11-13T05:44:36;13.70;99.90
21666;DHT22;10994;45.486;9.190;2022-11-13T05:47:20;13.60;99.90
21666;DHT22;10994;45.486;9.190;2022-11-13T05:50:05;13.40;99.90
21666;DHT22;10994;45.486;9.190;2022-11-13T05:52:49;13.40;99.90
21666;DHT22;10994;45.486;9.190;2022-11-13T05:55:34;13.40;99.90
21666;DHT22;10994;45.486;9.190;2022-11-13T05:58:18;13.50;99.90
21666;DHT22;10994;45.486;9.190;2022-11-13T06:01:07;13.40;99.90
21666;DHT22;10994;45.486;9.190;2022-11-13T06:03:54;13.50;99.90
21666;DHT22;10994;45.486;9.190;2022-11-13T06:06:39;13.40;99.90
21666;DHT22;10994;45.486;9.190;2022-11-13T06:09:24;13.40;99.90
21666;DHT22;10994;45.486;9.190;2022-11-13T06:12:08;13.30;99.90
21666;DHT22;10994;45.486;9.190;2022-11-13T06:14:52;13.20;99.90
21666;DHT22;10994;45.486;9.190;2022-11-13T06:17:36;13.10;99.90
21666;DHT22;10994;45.486;9.190;2022-11-13T06:20:20;13.00;99.90
21666;DHT22;10994;45.486;9.190;2022-11-13T06:23:04;13.10;99.90
21666;DHT22;10994;45.486;9.190;2022-11-13T06:25:49;13.10;99.90
21666;DHT22;10994;45.486;9.190;2022-11-13T06:28:34;13.20;99.90
21666;DHT22;10994;45.486;9.190;2022-11-13T06:31:24;13.20;99.90
21666;DHT22;10994;45.486;9.190;2022-11-13T06:34:08;13.30;99.90
21666;DHT22;10994;45.486;9.190;2022-11-13T06:36:52;13.30;99.90
21666;DHT22;10994;45.486;9.190;2022-11-13T06:39:36;13.30;99.90
21666;DHT22;10994;45.486;9.190;2022-11-13T06:42:20;13.30;99.90
21666;DHT22;10994;45.486;9.190;2022-11-13T06:45:05;13.10;99.90
21666;DHT22;10994;45.486;9.190;2022-11-13T06:47:49;12.90;99.90
21666;DHT22;10994;45.486;9.190;2022-11-13T06:50:33;12.80;99.90
21666;DHT22;10994;45.486;9.190;2022-11-13T06:53:18;12.80;99.90
21666;DHT22;10994;45.486;9.190;2022-11-13T06:56:04;13.00;99.90
21666;DHT22;10994;45.486;9.190;2022-11-13T06:58:49;13.10;99.90
21666;DHT22;10994;45.486;9.190;2022-11-13T07:01:34;13.20;99.90
21666;DHT22;10994;45.486;9.190;2022-11-13T07:04:17;13.20;99.90
21666;DHT22;10994;45.486;9.190;2022-11-13T07:07:02;13.30;99.90
21666;DHT22;10994;45.486;9.190;2022-11-13T07:09:47;13.30;99.90
21666;DHT22;10994;45.486;9.190;2022-11-13T07:12:31;13.40;99.90
21666;DHT22;10994;45.486;9.190;2022-11-13T07:15:16;13.50;99.90
21666;DHT22;10994;45.486;9.190;2022-11-13T07:18:01;13.50;99.90
21666;DHT22;10994;45.486;9.190;2022-11-13T07:20:46;13.60;99.90
21666;DHT22;10994;45.486;9.190;2022-11-13T07:23:30;13.50;99.90
21666;DHT22;10994;45.486;9.190;2022-11-13T07:26:14;13.40;99.90
21666;DHT22;10994;45.486;9.190;2022-11-13T07:28:59;13.30;99.90
21666;DHT22;10994;45.486;9.190;2022-11-13T07:31:43;13.50;99.90
21666;DHT22;10994;45.486;9.190;2022-11-13T07:34:27;13.50;99.90
21666;DHT22;10994;45.486;9.190;2022-11-13T07:37:11;13.50;99.90
21666;DHT22;10994;45.486;9.190;2022-11-13T07:39:56;13.60;99.90
21666;DHT22;10994;45.486;9.190;2022-11-13T07:42:40;13.70;99.90
21666;DHT22;10994;45.486;9.190;2022-11-13T07:45:24;13.70;99.90
21666;DHT22;10994;45.486;9.190;2022-11-13T07:48:09;13.70;99.90
21666;DHT22;10994;45.486;9.190;2022-11-13T07:50:53;13.70;99.90
21666;DHT22;10994;45.486;9.190;2022-11-13T07:53:38;13.80;99.90
21666;DHT22;10994;45.486;9.190;2022-11-13T07:56:23;13.80;99.90
21666;DHT22;10994;45.486;9.190;2022-11-13T07:59:08;13.90;99.90
21666;DHT22;10994;45.486;9.190;2022-11-13T08:01:52;14.00;99.90
21666;DHT22;10994;45.486;9.190;2022-11-13T08:04:36;14.10;99.90
21666;DHT22;10994;45.486;9.190;2022-11-13T08:07:20;14.10;99.90
21666;DHT22;10994;45.486;9.190;2022-11-13T08:10:04;14.20;99.90
21666;DHT22;10994;45.486;9.190;2022-11-13T08:12:48;14.30;99.90
21666;DHT22;10994;45.486;9.190;2022-11-13T08:15:40;14.20;99.90
21666;DHT22;10994;45.486;9.190;2022-11-13T08:18:24;14.20;99.90
21666;DHT22;10994;45.486;9.190;2022-11-13T08:21:08;14.30;99.90
21666;DHT22;10994;45.486;9.190;2022-11-13T08:23:52;14.20;99.90
21666;DHT22;10994;45.486;9.190;2022-11-13T08:26:37;14.20;99.90
21666;DHT22;10994;45.486;9.190;2022-11-13T08:29:23;14.30;99.90
21666;DHT22;10994;45.486;9.190;2022-11-13T08:32:07;14.40;99.90
21666;DHT22;10994;45.486;9.190;2022-11-13T08:34:51;15.70;99.90
21666;DHT22;10994;45.486;9.190;2022-11-13T08:37:35;16.30;99.90
21666;DHT22;10994;45.486;9.190;2022-11-13T08:40:20;17.10;99.90
21666;DHT22;10994;45.486;9.190;2022-11-13T08:43:04;18.20;99.90
21666;DHT22;10994;45.486;9.190;2022-11-13T08:45:48;17.40;99.90
21666;DHT22;10994;45.486;9.190;2022-11-13T08:48:32;15.80;99.90
21666;DHT22;10994;45.486;9.190;2022-11-13T08:51:17;15.30;99.90
21666;DHT22;10994;45.486;9.190;2022-11-13T08:54:01;15.30;99.90
21666;DHT22;10994;45.486;9.190;2022-11-13T08:56:48;15.30;99.90
21666;DHT22;10994;45.486;9.190;2022-11-13T08:59:33;15.30;99.90
21666;DHT22;10994;45.486;9.190;2022-11-13T09:02:17;15.20;99.90
21666;DHT22;10994;45.486;9.190;2022-11-13T09:05:01;15.10;99.90
21666;DHT22;10994;45.486;9.190;2022-11-13T09:07:45;15.00;99.90
21666;DHT22;10994;45.486;9.190;2022-11-13T09:10:30;15.00;99.90
21666;DHT22;10994;45.486;9.190;2022-11-13T09:13:14;14.90;99.90
21666;DHT22;10994;45.486;9.190;2022-11-13T09:15:59;14.90;99.90
21666;DHT22;10994;45.486;9.190;2022-11-13T09:18:43;14.90;99.90
21666;DHT22;10994;45.486;9.190;2022-11-13T09:21:27;14.90;99.90
21666;DHT22;10994;45.486;9.190;2022-11-13T09:24:11;14.90;99.90
21666;DHT22;10994;45.486;9.190;2022-11-13T09:26:55;14.50;99.90
21666;DHT22;10994;45.486;9.190;2022-11-13T09:29:39;14.50;99.90
21666;DHT22;10994;45.486;9.190;2022-11-13T09:32:23;14.60;99.90
21666;DHT22;10994;45.486;9.190;2022-11-13T09:35:08;14.60;99.90
21666;DHT22;10994;45.486;9.190;2022-11-13T09:37:52;14.70;99.90
21666;DHT22;10994;45.486;9.190;2022-11-13T09:40:46;14.70;99.90
21666;DHT22;10994;45.486;9.190;2022-11-13T09:43:50;14.80;99.90
21666;DHT22;10994;45.486;9.190;2022-11-13T09:46:53;14.80;99.90
21666;DHT22;10994;45.486;9.190;2022-11-13T09:49:45;14.50;99.90
21666;DHT22;10994;45.486;9.190;2022-11-13T09:52:40;14.50;99.90
21666;DHT22;10994;45.486;9.190;2022-11-13T09:55:28;14.40;99.90
21666;DHT22;10994;45.486;9.190;2022-11-13T09:58:27;14.30;99.90
21666;DHT22;10994;45.486;9.190;2022-11-13T10:01:25;14.30;99.90
21666;DHT22;10994;45.486;9.190;2022-11-13T10:04:13;14.50;99.90
21666;DHT22;10994;45.486;9.190;2022-11-13T10:07:01;14.50;99.90
21666;DHT22;10994;45.486;9.190;2022-11-13T10:10:04;14.60;99.90
21666;DHT22;10994;45.486;9.190;2022-11-13T10:12:57;14.50;99.90
21666;DHT22;10994;45.486;9.190;2022-11-13T10:15:43;14.60;99.90
21666;DHT22;10994;45.486;9.190;2022-11-13T10:18:32;14.70;99.90
21666;DHT22;10994;45.486;9.190;2022-11-13T10:21:31;14.70;99.90
21666;DHT22;10994;45.486;9.190;2022-11-13T10:24:43;14.80;99.90
21666;DHT22;10994;45.486;9.190;2022-11-13T10:27:28;14.80;99.90
21666;DHT22;10994;45.486;9.190;2022-11-13T10:30:16;14.80;99.90
21666;DHT22;10994;45.486;9.190;2022-11-13T10:33:06;14.70;99.90
21666;DHT22;10994;45.486;9.190;2022-11-13T10:36:07;14.80;99.90
21666;DHT22;10994;45.486;9.190;2022-11-13T10:39:02;14.80;99.90
21666;DHT22;10994;45.486;9.190;2022-11-13T10:41:51;14.90;99.90
21666;DHT22;10994;45.486;9.190;2022-11-13T10:44:35;14.90;99.90
21666;DHT22;10994;45.486;9.190;2022-11-13T10:47:21;15.00;99.90
21666;DHT22;10994;45.486;9.190;2022-11-13T10:50:18;15.00;99.90
21666;DHT22;10994;45.486;9.190;2022-11-13T10:53:14;15.10;99.90
21666;DHT22;10994;45.486;9.190;2022-11-13T10:55:59;15.10;99.90
21666;DHT22;10994;45.486;9.190;2022-11-13T10:59:17;15.00;99.90
21666;DHT22;10994;45.486;9.190;2022-11-13T11:02:18;15.10;99.90
21666;DHT22;10994;45.486;9.190;2022-11-13T11:05:06;15.00;99.90
21666;DHT22;10994;45.486;9.190;2022-11-13T11:07:52;14.90;99.90
21666;DHT22;10994;45.486;9.190;2022-11-13T11:10:38;15.00;99.90
21666;DHT22;10994;45.486;9.190;2022-11-13T11:13:45;15.00;99.90
21666;DHT22;10994;45.486;9.190;2022-11-13T11:16:30;15.00;99.90
21666;DHT22;10994;45.486;9.190;2022-11-13T11:19:15;14.90;99.90
21666;DHT22;10994;45.486;9.190;2022-11-13T11:22:22;15.00;99.90
21666;DHT22;10994;45.486;9.190;2022-11-13T11:25:35;15.00;99.90
21666;DHT22;10994;45.486;9.190;2022-11-13T11:34:41;15.40;99.90
21666;DHT22;10994;45.486;9.190;2022-11-13T11:37:40;15.50;99.90
21666;DHT22;10994;45.486;9.190;2022-11-13T11:40:35;15.40;99.90
21666;DHT22;10994;45.486;9.190;2022-11-13T11:43:38;15.50;99.90
21666;DHT22;10994;45.486;9.190;2022-11-13T11:46:24;15.50;99.90
21666;DHT22;10994;45.486;9.190;2022-11-13T11:49:09;15.50;99.90
21666;DHT22;10994;45.486;9.190;2022-11-13T12:01:02;15.80;99.90
21666;DHT22;10994;45.486;9.190;2022-11-13T12:04:12;15.90;99.90
21666;DHT22;10994;45.486;9.190;2022-11-13T12:10:22;17.50;99.90
21666;DHT22;10994;45.486;9.190;2022-11-13T12:19:44;26.70;99.90
21666;DHT22;10994;45.486;9.190;2022-11-13T12:23:00;27.90;99.90
21666;DHT22;10994;45.486;9.190;2022-11-13T12:34:59;18.40;99.90
21666;DHT22;10994;45.486;9.190;2022-11-13T12:40:52;18.00;99.90
21666;DHT22;10994;45.486;9.190;2022-11-13T12:44:12;17.90;99.90
21666;DHT22;10994;45.486;9.190;2022-11-13T12:47:00;17.80;99.90
21666;DHT22;10994;45.486;9.190;2022-11-13T12:49:45;17.50;99.90
21666;DHT22;10994;45.486;9.190;2022-11-13T12:52:29;16.80;99.90
21666;DHT22;10994;45.486;9.190;2022-11-13T12:55:30;16.80;99.90
21666;DHT22;10994;45.486;9.190;2022-11-13T12:58:24;16.70;99.90
21666;DHT22;10994;45.486;9.190;2022-11-13T13:04:04;16.70;99.90
21666;DHT22;10994;45.486;9.190;2022-11-13T13:13:29;16.50;99.90
21666;DHT22;10994;45.486;9.190;2022-11-13T13:16:23;16.20;99.90
21666;DHT22;10994;45.486;9.190;2022-11-13T13:19:27;16.00;99.90
21666;DHT22;10994;45.486;9.190;2022-11-13T13:22:33;16.00;99.90
21666;DHT22;10994;45.486;9.190;2022-11-13T13:25:32;15.90;99.90
21666;DHT22;10994;45.486;9.190;2022-11-13T13:28:19;15.90;99.90
21666;DHT22;10994;45.486;9.190;2022-11-13T13:31:20;15.90;99.90
21666;DHT22;10994;45.486;9.190;2022-11-13T13:34:39;15.70;99.90
21666;DHT22;10994;45.486;9.190;2022-11-13T13:37:40;15.80;99.90
21666;DHT22;10994;45.486;9.190;2022-11-13T13:40:40;15.80;99.90
21666;DHT22;10994;45.486;9.190;2022-11-13T13:46:26;15.80;99.90
21666;DHT22;10994;45.486;9.190;2022-11-13T13:49:15;15.80;99.90
21666;DHT22;10994;45.486;9.190;2022-11-13T13:52:01;15.70;99.90
21666;DHT22;10994;45.486;9.190;2022-11-13T13:54:46;15.60;99.90
21666;DHT22;10994;45.486;9.190;2022-11-13T13:57:31;15.60;99.90
21666;DHT22;10994;45.486;9.190;2022-11-13T14:00:17;15.60;99.90
21666;DHT22;10994;45.486;9.190;2022-11-13T14:03:02;15.50;99.90
21666;DHT22;10994;45.486;9.190;2022-11-13T14:05:47;15.50;99.90
21666;DHT22;10994;45.486;9.190;2022-11-13T14:08:31;15.60;99.90
21666;DHT22;10994;45.486;9.190;2022-11-13T14:14:19;15.70;99.90
21666;DHT22;10994;45.486;9.190;2022-11-13T14:17:04;15.60;99.90
21666;DHT22;10994;45.486;9.190;2022-11-13T14:19:50;15.70;99.90
21666;DHT22;10994;45.486;9.190;2022-11-13T14:22:35;15.70;99.90
21666;DHT22;10994;45.486;9.190;2022-11-13T14:25:27;15.70;99.90
21666;DHT22;10994;45.486;9.190;2022-11-13T14:28:21;15.70;99.90
21666;DHT22;10994;45.486;9.190;2022-11-13T14:31:08;15.70;99.90
21666;DHT22;10994;45.486;9.190;2022-11-13T14:33:55;15.60;99.90
21666;DHT22;10994;45.486;9.190;2022-11-13T14:36:40;15.60;99.90
21666;DHT22;10994;45.486;9.190;2022-11-13T14:39:30;15.40;99.90
21666;DHT22;10994;45.486;9.190;2022-11-13T14:42:36;15.50;99.90
21666;DHT22;10994;45.486;9.190;2022-11-13T14:48:21;15.60;99.90
21666;DHT22;10994;45.486;9.190;2022-11-13T14:51:21;15.70;99.90
21666;DHT22;10994;45.486;9.190;2022-11-13T14:54:06;15.60;99.90
21666;DHT22;10994;45.486;9.190;2022-11-13T14:56:51;15.60;99.90
21666;DHT22;10994;45.486;9.190;2022-11-13T14:59:36;15.60;99.90
21666;DHT22;10994;45.486;9.190;2022-11-13T15:02:21;15.60;99.90
21666;DHT22;10994;45.486;9.190;2022-11-13T15:05:05;15.60;99.90
21666;DHT22;10994;45.486;9.190;2022-11-13T15:07:50;15.60;99.90
21666;DHT22;10994;45.486;9.190;2022-11-13T15:10:36;15.50;99.90
21666;DHT22;10994;45.486;9.190;2022-11-13T15:13:20;15.50;99.90
21666;DHT22;10994;45.486;9.190;2022-11-13T15:16:05;15.50;99.90
21666;DHT22;10994;45.486;9.190;2022-11-13T15:18:57;15.50;99.90
21666;DHT22;10994;45.486;9.190;2022-11-13T15:21:43;15.40;99.90
21666;DHT22;10994;45.486;9.190;2022-11-13T15:24:27;15.50;99.90
21666;DHT22;10994;45.486;9.190;2022-11-13T15:27:15;15.60;99.90
21666;DHT22;10994;45.486;9.190;2022-11-13T15:29:59;15.50;99.90
21666;DHT22;10994;45.486;9.190;2022-11-13T15:32:43;15.50;99.90
21666;DHT22;10994;45.486;9.190;2022-11-13T15:35:28;15.50;99.90
21666;DHT22;10994;45.486;9.190;2022-11-13T15:38:12;15.50;99.90
21666;DHT22;10994;45.486;9.190;2022-11-13T15:40:56;15.60;99.90
21666;DHT22;10994;45.486;9.190;2022-11-13T15:43:47;15.50;99.90
21666;DHT22;10994;45.486;9.190;2022-11-13T15:46:32;15.50;99.90
21666;DHT22;10994;45.486;9.190;2022-11-13T15:49:16;15.50;99.90
21666;DHT22;10994;45.486;9.190;2022-11-13T15:52:00;15.40;99.90
21666;DHT22;10994;45.486;9.190;2022-11-13T15:54:44;15.40;99.90
21666;DHT22;10994;45.486;9.190;2022-11-13T15:57:29;15.40;99.90
21666;DHT22;10994;45.486;9.190;2022-11-13T16:00:19;15.40;99.90
21666;DHT22;10994;45.486;9.190;2022-11-13T16:03:04;15.40;99.90
21666;DHT22;10994;45.486;9.190;2022-11-13T16:05:55;15.30;99.90
21666;DHT22;10994;45.486;9.190;2022-11-13T16:08:39;15.40;99.90
21666;DHT22;10994;45.486;9.190;2022-11-13T16:11:30;15.40;99.90
21666;DHT22;10994;45.486;9.190;2022-11-13T16:14:15;15.30;99.90
21666;DHT22;10994;45.486;9.190;2022-11-13T16:17:02;15.30;99.90
21666;DHT22;10994;45.486;9.190;2022-11-13T16:19:48;15.20;99.90
21666;DHT22;10994;45.486;9.190;2022-11-13T16:22:33;15.30;99.90
21666;DHT22;10994;45.486;9.190;2022-11-13T16:25:20;15.20;99.90
21666;DHT22;10994;45.486;9.190;2022-11-13T16:28:07;15.20;99.90
21666;DHT22;10994;45.486;9.190;2022-11-13T16:30:53;15.20;99.90
21666;DHT22;10994;45.486;9.190;2022-11-13T16:33:38;15.20;99.90
21666;DHT22;10994;45.486;9.190;2022-11-13T16:36:22;15.10;99.90
21666;DHT22;10994;45.486;9.190;2022-11-13T16:39:13;15.10;99.90
21666;DHT22;10994;45.486;9.190;2022-11-13T16:41:58;15.10;99.90
21666;DHT22;10994;45.486;9.190;2022-11-13T16:44:43;15.10;99.90
21666;DHT22;10994;45.486;9.190;2022-11-13T16:47:27;15.20;99.90
21666;DHT22;10994;45.486;9.190;2022-11-13T16:50:14;15.10;99.90
21666;DHT22;10994;45.486;9.190;2022-11-13T16:52:59;15.10;99.90
21666;DHT22;10994;45.486;9.190;2022-11-13T16:55:44;15.10;99.90
21666;DHT22;10994;45.486;9.190;2022-11-13T16:58:28;15.10;99.90
21666;DHT22;10994;45.486;9.190;2022-11-13T17:01:18;15.00;99.90
21666;DHT22;10994;45.486;9.190;2022-11-13T17:04:03;15.00;99.90
21666;DHT22;10994;45.486;9.190;2022-11-13T17:06:47;15.00;99.90
21666;DHT22;10994;45.486;9.190;2022-11-13T17:09:32;15.00;99.90
21666;DHT22;10994;45.486;9.190;2022-11-13T17:12:16;15.00;99.90
21666;DHT22;10994;45.486;9.190;2022-11-13T17:15:00;15.00;99.90
21666;DHT22;10994;45.486;9.190;2022-11-13T17:17:45;15.00;99.90
21666;DHT22;10994;45.486;9.190;2022-11-13T17:20:29;15.00;99.90
21666;DHT22;10994;45.486;9.190;2022-11-13T17:23:14;15.00;99.90
21666;DHT22;10994;45.486;9.190;2022-11-13T17:26:02;15.00;99.90
21666;DHT22;10994;45.486;9.190;2022-11-13T17:28:47;15.00;99.90
21666;DHT22;10994;45.486;9.190;2022-11-13T17:31:31;15.00;99.90
21666;DHT22;10994;45.486;9.190;2022-11-13T17:34:15;15.00;99.90
21666;DHT22;10994;45.486;9.190;2022-11-13T17:36:59;15.00;99.90
21666;DHT22;10994;45.486;9.190;2022-11-13T17:39:44;15.00;99.90
21666;DHT22;10994;45.486;9.190;2022-11-13T17:42:32;15.00;99.90
21666;DHT22;10994;45.486;9.190;2022-11-13T17:45:17;15.00;99.90
21666;DHT22;10994;45.486;9.190;2022-11-13T17:48:01;15.00;99.90
21666;DHT22;10994;45.486;9.190;2022-11-13T17:50:54;14.90;99.90
21666;DHT22;10994;45.486;9.190;2022-11-13T17:53:39;14.80;99.90
21666;DHT22;10994;45.486;9.190;2022-11-13T17:56:24;14.90;99.90
21666;DHT22;10994;45.486;9.190;2022-11-13T17:59:08;14.90;99.90
21666;DHT22;10994;45.486;9.190;2022-11-13T18:01:56;14.90;99.90
21666;DHT22;10994;45.486;9.190;2022-11-13T18:04:41;15.00;99.90
21666;DHT22;10994;45.486;9.190;2022-11-13T18:07:26;15.00;99.90
21666;DHT22;10994;45.486;9.190;2022-11-13T18:10:10;14.90;99.90
21666;DHT22;10994;45.486;9.190;2022-11-13T18:12:54;15.00;99.90
21666;DHT22;10994;45.486;9.190;2022-11-13T18:15:39;15.00;99.90
21666;DHT22;10994;45.486;9.190;2022-11-13T18:18:23;15.10;99.90
21666;DHT22;10994;45.486;9.190;2022-11-13T18:21:16;15.00;99.90
21666;DHT22;10994;45.486;9.190;2022-11-13T18:24:04;15.10;99.90
21666;DHT22;10994;45.486;9.190;2022-11-13T18:26:49;15.10;99.90
21666;DHT22;10994;45.486;9.190;2022-11-13T18:29:33;15.20;99.90
21666;DHT22;10994;45.486;9.190;2022-11-13T18:32:17;15.10;99.90
21666;DHT22;10994;45.486;9.190;2022-11-13T18:35:02;15.10;99.90